METAR Data
IDs: Format: Raw Decoded Include TAF

Data at: 1709 UTC 16 Oct 2021

KCRS 151630Z AUTO 26009KT 10SM SCT013 SCT025 BKN031 26/22 A2999 RMK AO2 T02560222
KCRS 151553Z AUTO 27009KT 10SM OVC010 24/22 A2998 RMK AO2 CIG 007V013 SLP147 T02440217
KCRS 151453Z AUTO 22012KT 10SM OVC008 23/22 A2996 RMK AO2 SLP140 T02330217 53018
KCRS 151353Z AUTO 20008KT 7SM OVC005 23/22 A2993 RMK AO2 SLP132 T02280217 $
KCRS 151344Z AUTO 22008KT 6SM BR OVC005 22/22 A2993 RMK AO2 T02220217 $
KCRS 151333Z AUTO 22009KT 7SM OVC004 22/22 A2993 RMK AO2 T02220217 $
KCRS 151253Z AUTO 20009KT 8SM OVC005 22/22 A2991 RMK AO2 CIG 004V009 SLP125 T02220217 $
KCRS 151153Z AUTO 22007KT 9SM OVC006 23/22 A2991 RMK AO2 SLP122 T02280217 10228 20217 53017 $
KCRS 151053Z AUTO 20009KT 8SM OVC006 23/22 A2988 RMK AO2 SLP112 T02280217 $
KCRS 151039Z AUTO 19009KT 7SM OVC005 23/22 A2987 RMK AO2 CIG 004V009 T02280217 $
KCRS 150953Z AUTO 19009KT 5SM BR OVC003 23/22 A2987 RMK AO2 SLP108 T02280222
KCRS 150941Z AUTO 18010KT 6SM BR OVC004 23/22 A2986 RMK AO2 T02280222
KCRS 150927Z AUTO 17009KT 8SM BKN005 22/22 A2986 RMK AO2 T02220217
KCRS 150918Z AUTO 18007KT 8SM SCT005 22/22 A2986 RMK AO2 T02220217
KCRS 150853Z AUTO 17008KT 9SM CLR 22/22 A2986 RMK AO2 SLP105 T02220217 58007
KCRS 150753Z AUTO 16009KT 10SM CLR 22/21 A2986 RMK AO2 SLP108 T02220211
KCRS 150653Z AUTO 15007KT 10SM CLR 22/21 A2988 RMK AO2 SLP111 T02220211
KCRS 150553Z AUTO 15005KT 10SM CLR 23/22 A2988 RMK AO2 SLP112 T02280217 10250 20228 402890200 50001